x

West Sea Otter (46204) Wave Buoy

7:00 - Mon 29th May 2017 All times are PDT. -7 hours from GMT.

  • Sig Wave height 2.0ft
  • Peak Period 18s
  • Wind
    9mph, 11mph gusts
  • Sea Temp 53°f
  • Aire Temp 50°f
  • Sea Pressure 1016.5mb
  • West Sea Otter
  • West Sea Otter

More Historic Weather Station data

Upgrade to MSW Pro to gain access to the past 30 days of data for over 8000 Wavebouys and Weather Stations around the globe.

Join Pro

Comparision Forecast

View Surf forecast
   
lun 05/29 7:00 2ft 18s 9 11 mph 1016.5mb 53f 50f
6:00 2ft 18s 9 11 mph 1017mb 53f 50f
5:00 2ft 10s 9 11 mph 1017.5mb 53f 50f
4:00 2ft 13s 7 9 mph 1018.2mb 53f 50f
3:00 2ft 18s 4 7 mph 1018.7mb 53f 50f
2:00 2ft 10s 4 7 mph 1019mb 53f 50f
1:00 2ft 8s 2 4 mph 1019.4mb 53f 50f
12:00 2ft 10s 4 7 mph 1019.5mb 53f 50f
11:00 1.6ft 14s 4 4 mph 1019.5mb 53f 50f
10:00 1.6ft 13s 4 4 mph 1019.7mb 52f 49f
9:00 1.6ft 10s 4 7 mph 1019.6mb 52f 49f
8:00 1.6ft 14s 2 4 mph 1019.7mb 52f 49f
7:00 1.6ft 14s 4 9 mph 1019.6mb 52f 49f
6:00 1.6ft 14s 4 4 mph 1019.7mb 52f 49f
5:00 2ft 14s 7 9 mph 1019.5mb 52f 49f
4:00 2ft 14s 7 9 mph 1019.5mb 52f 50f
3:00 2.5ft 9s 7 11 mph 1019.5mb 52f 50f
2:00 2.5ft 14s 4 7 mph 1019.2mb 51f 50f
1:00 2.5ft 10s 4 9 mph 1019.5mb 52f 50f
12:00 2.5ft 10s 9 11 mph 1019.7mb 52f 50f
dom 05/28 11:00 2.5ft 9s 4 9 mph 1019.8mb 52f 51f
10:00 2.5ft 14s 4 7 mph 1020.1mb 52f 51f
9:00 2.5ft 10s 7 9 mph 1020mb 53f 51f
8:00 2.5ft 14s 4 9 mph 1020.2mb 52f 51f
7:00 3ft 10s 7 11 mph 1020.5mb 52f 51f
6:00 3ft 4s 11 13 mph 1020.7mb 53f 51f
5:00 3.5ft 5s 13 16 mph 1020.9mb 53f 52f
4:00 3.5ft 5s 16 18 mph 1020.8mb 53f 52f
3:00 4.5ft 5s 18 20 mph 1020.7mb 52f 52f
2:00 4.5ft 5s 18 25 mph 1020.6mb 53f 51f
1:00 5ft 5s 18 22 mph 1020.3mb 52f 51f
12:00 5ft 5s 22 27 mph 1020mb 52f 51f
11:00 4.5ft 5s 22 27 mph 1019.8mb 53f 51f
10:00 3.5ft 14s 20 22 mph 1019.5mb 53f 50f
9:00 3ft 10s 16 20 mph 1019.4mb 53f 49f
8:00 3ft 10s 16 20 mph 1019.3mb 53f 48f
7:00 2.5ft 11s 11 13 mph 1018.8mb 53f 49f
6:00 2.5ft 11s 11 13 mph 1018.2mb 53f 49f
5:00 2.5ft 10s 7 11 mph 1017.7mb 53f 52f
4:00 2.5ft 10s 4 4 mph 1017.6mb 53f 52f
3:00 3ft 10s 4 4 mph 1017.8mb 53f 52f
2:00 3.5ft 10s 2 4 mph 1018mb 53f 53f
1:00 3ft 10s 2 2 mph 1017.9mb 53f 52f
12:00 3.5ft 10s 4 4 mph 1018.1mb 53f 52f
sáb 05/27 11:00 3.5ft 8s 2 2 mph 1018.5mb 53f 52f
10:00 3.5ft 9s 2 2 mph 1018.9mb 53f 52f
9:00 3.5ft 10s 4 7 mph 1018.9mb 53f 53f
8:00 3.5ft 10s 7 9 mph 1019mb 53f 53f
7:00 3ft 11s 11 13 mph 1019.3mb 53f 53f
6:00 3.5ft 10s 9 9 mph 1019.7mb 55f 53f
5:00 3.5ft 11s 7 9 mph 1020.1mb 54f 51f
4:00 4ft 11s 9 9 mph 1020.3mb 53f 50f
3:00 4.5ft 11s 9 11 mph 1020.5mb 54f 51f
2:00 4.5ft 10s 7 9 mph 1020.7mb 54f 50f
1:00 5ft 6s 7 9 mph 1020.8mb 53f 50f
12:00 5ft 5s 4 9 mph 1020.9mb 53f 51f
11:00 5ft 7s 7 9 mph 1020.8mb 53f 51f
10:00 5ft 11s 7 9 mph 1020.8mb 52f 51f
9:00 4.5ft 11s 9 11 mph 1020.8mb 52f 51f
8:00 4.5ft 10s 11 11 mph 1020.4mb 52f 51f
7:00 4.5ft 7s 11 13 mph 1020.1mb 52f 51f
6:00 4.5ft 7s 13 16 mph 1019.8mb 52f 51f
5:00 4.5ft 12s 16 18 mph 1019.4mb 52f 51f
4:00 4.5ft 8s 16 20 mph 1019.3mb 52f 51f
3:00 5ft 10s 18 20 mph 1019.2mb 52f 51f
2:00 5ft 10s 13 18 mph 1019.3mb 52f 51f
1:00 5ft 6s 13 16 mph 1019.3mb 52f 51f
12:00 5ft 10s 13 16 mph 1019.1mb 52f 51f
vie 05/26 11:00 5ft 7s 11 16 mph 1019.3mb 52f 51f
10:00 6ft 8s 11 13 mph 1019.3mb 52f 51f
9:00 5.5ft 10s 13 16 mph 1019.1mb 52f 51f
8:00 5ft 8s 13 18 mph 1018.9mb 52f 51f
7:00 5ft 8s 13 16 mph 1019.1mb 52f 51f
6:00 5ft 8s 16 18 mph 1019.1mb 52f 51f
5:00 6ft 7s 16 20 mph 1018.9mb 52f 51f
4:00 6ft 7s 16 20 mph 1018.8mb 52f 49f
3:00 7ft 7s 18 20 mph 1018.8mb 52f 49f
2:00 8ft 8s 18 20 mph 1018.5mb 52f 50f
1:00 8ft 7s 18 20 mph 1018.4mb 52f 50f
12:00 8ft 8s 18 22 mph 1018.2mb 52f 50f
11:00 7.5ft 7s 18 22 mph 1018mb 52f 49f
10:00 8ft 8s 18 22 mph 1017.8mb 52f 49f
9:00  -   -  18
mph
- - -
8:00 8ft 8s 18 22 mph 1017.3mb 52f 49f
7:00 8ft 7s 18 22 mph 1017.1mb 51f 49f
6:00 7.5ft 8s 20 25 mph 1016.6mb 52f 49f
5:00 7.5ft 8s 20 27 mph 1016.3mb 52f 49f
4:00 7.5ft 9s 22 27 mph 1016.2mb 52f 49f